sensor_id;sensor_type;location;lat;lon;timestamp;temperature;humidity
20654;DHT22;21083;50.898;4.902;2023-06-22T00:01:20;23.80;99.90
20654;DHT22;21083;50.898;4.902;2023-06-22T00:03:47;23.70;99.90
20654;DHT22;21083;50.898;4.902;2023-06-22T00:06:14;23.70;99.90
20654;DHT22;21083;50.898;4.902;2023-06-22T00:08:41;23.70;99.90
20654;DHT22;21083;50.898;4.902;2023-06-22T00:11:08;23.70;99.90
20654;DHT22;21083;50.898;4.902;2023-06-22T00:13:35;23.70;99.90
20654;DHT22;21083;50.898;4.902;2023-06-22T00:16:04;23.60;99.90
20654;DHT22;21083;50.898;4.902;2023-06-22T00:18:31;23.60;99.90
20654;DHT22;21083;50.898;4.902;2023-06-22T00:20:59;23.50;99.90
20654;DHT22;21083;50.898;4.902;2023-06-22T00:23:26;23.60;99.90
20654;DHT22;21083;50.898;4.902;2023-06-22T00:25:53;23.50;99.90
20654;DHT22;21083;50.898;4.902;2023-06-22T00:28:20;23.50;99.90
20654;DHT22;21083;50.898;4.902;2023-06-22T00:30:48;23.40;99.90
20654;DHT22;21083;50.898;4.902;2023-06-22T00:33:16;23.40;99.90
20654;DHT22;21083;50.898;4.902;2023-06-22T00:35:43;23.30;99.90
20654;DHT22;21083;50.898;4.902;2023-06-22T00:38:10;23.20;99.90
20654;DHT22;21083;50.898;4.902;2023-06-22T00:40:37;23.20;99.90
20654;DHT22;21083;50.898;4.902;2023-06-22T00:43:05;23.20;99.90
20654;DHT22;21083;50.898;4.902;2023-06-22T00:45:32;23.20;99.90
20654;DHT22;21083;50.898;4.902;2023-06-22T00:47:59;23.10;99.90
20654;DHT22;21083;50.898;4.902;2023-06-22T00:50:29;23.20;99.90
20654;DHT22;21083;50.898;4.902;2023-06-22T00:53:00;23.20;99.90
20654;DHT22;21083;50.898;4.902;2023-06-22T00:55:33;23.20;99.90
20654;DHT22;21083;50.898;4.902;2023-06-22T00:58:03;23.10;99.90
20654;DHT22;21083;50.898;4.902;2023-06-22T01:00:31;23.00;99.90
20654;DHT22;21083;50.898;4.902;2023-06-22T01:02:58;23.00;99.90
20654;DHT22;21083;50.898;4.902;2023-06-22T01:05:26;23.00;99.90
20654;DHT22;21083;50.898;4.902;2023-06-22T01:08:07;23.10;99.90
20654;DHT22;21083;50.898;4.902;2023-06-22T01:10:40;23.00;99.90
20654;DHT22;21083;50.898;4.902;2023-06-22T01:13:16;23.00;99.90
20654;DHT22;21083;50.898;4.902;2023-06-22T01:15:48;23.00;99.90
20654;DHT22;21083;50.898;4.902;2023-06-22T01:18:17;22.90;99.90
20654;DHT22;21083;50.898;4.902;2023-06-22T01:20:47;22.90;99.90
20654;DHT22;21083;50.898;4.902;2023-06-22T01:23:21;22.90;99.90
20654;DHT22;21083;50.898;4.902;2023-06-22T01:25:59;22.90;99.90
20654;DHT22;21083;50.898;4.902;2023-06-22T01:28:48;22.90;99.90
20654;DHT22;21083;50.898;4.902;2023-06-22T01:31:17;22.80;99.90
20654;DHT22;21083;50.898;4.902;2023-06-22T01:33:48;22.80;99.90
20654;DHT22;21083;50.898;4.902;2023-06-22T01:36:17;22.80;99.90
20654;DHT22;21083;50.898;4.902;2023-06-22T01:38:44;22.80;99.90
20654;DHT22;21083;50.898;4.902;2023-06-22T01:41:12;22.80;99.90
20654;DHT22;21083;50.898;4.902;2023-06-22T01:43:41;22.80;99.90
20654;DHT22;21083;50.898;4.902;2023-06-22T01:46:10;22.80;99.90
20654;DHT22;21083;50.898;4.902;2023-06-22T01:48:39;22.80;99.90
20654;DHT22;21083;50.898;4.902;2023-06-22T01:51:06;22.70;99.90
20654;DHT22;21083;50.898;4.902;2023-06-22T01:53:33;22.80;99.90
20654;DHT22;21083;50.898;4.902;2023-06-22T01:56:00;22.70;99.90
20654;DHT22;21083;50.898;4.902;2023-06-22T01:58:29;22.70;99.90
20654;DHT22;21083;50.898;4.902;2023-06-22T02:00:58;22.60;99.90
20654;DHT22;21083;50.898;4.902;2023-06-22T02:03:34;22.60;99.90
20654;DHT22;21083;50.898;4.902;2023-06-22T02:06:05;22.50;99.90
20654;DHT22;21083;50.898;4.902;2023-06-22T02:08:38;22.30;99.90
20654;DHT22;21083;50.898;4.902;2023-06-22T02:11:08;22.30;99.90
20654;DHT22;21083;50.898;4.902;2023-06-22T02:13:36;22.30;99.90
20654;DHT22;21083;50.898;4.902;2023-06-22T02:16:04;22.30;99.90
20654;DHT22;21083;50.898;4.902;2023-06-22T02:18:32;22.30;99.90
20654;DHT22;21083;50.898;4.902;2023-06-22T02:21:02;22.20;99.90
20654;DHT22;21083;50.898;4.902;2023-06-22T02:23:30;22.40;99.90
20654;DHT22;21083;50.898;4.902;2023-06-22T02:26:01;22.40;99.90
20654;DHT22;21083;50.898;4.902;2023-06-22T02:28:28;22.30;99.90
20654;DHT22;21083;50.898;4.902;2023-06-22T02:30:55;22.30;99.90
20654;DHT22;21083;50.898;4.902;2023-06-22T02:33:22;22.30;99.90
20654;DHT22;21083;50.898;4.902;2023-06-22T02:35:50;22.20;99.90
20654;DHT22;21083;50.898;4.902;2023-06-22T02:38:17;22.30;99.90
20654;DHT22;21083;50.898;4.902;2023-06-22T02:40:45;22.20;99.90
20654;DHT22;21083;50.898;4.902;2023-06-22T02:43:12;22.20;99.90
20654;DHT22;21083;50.898;4.902;2023-06-22T02:45:39;22.30;99.90
20654;DHT22;21083;50.898;4.902;2023-06-22T02:48:05;22.20;99.90
20654;DHT22;21083;50.898;4.902;2023-06-22T02:50:32;22.20;99.90
20654;DHT22;21083;50.898;4.902;2023-06-22T02:53:01;22.30;99.90
20654;DHT22;21083;50.898;4.902;2023-06-22T02:55:28;22.20;99.90
20654;DHT22;21083;50.898;4.902;2023-06-22T02:57:55;22.20;99.90
20654;DHT22;21083;50.898;4.902;2023-06-22T03:00:25;22.20;99.90
20654;DHT22;21083;50.898;4.902;2023-06-22T03:02:56;22.20;99.90
20654;DHT22;21083;50.898;4.902;2023-06-22T03:05:24;22.20;99.90
20654;DHT22;21083;50.898;4.902;2023-06-22T03:07:51;22.20;99.90
20654;DHT22;21083;50.898;4.902;2023-06-22T03:10:19;22.10;99.90
20654;DHT22;21083;50.898;4.902;2023-06-22T03:12:46;22.10;99.90
20654;DHT22;21083;50.898;4.902;2023-06-22T03:15:13;22.10;99.90
20654;DHT22;21083;50.898;4.902;2023-06-22T03:17:41;22.00;99.90
20654;DHT22;21083;50.898;4.902;2023-06-22T03:20:09;22.10;99.90
20654;DHT22;21083;50.898;4.902;2023-06-22T03:22:37;22.10;99.90
20654;DHT22;21083;50.898;4.902;2023-06-22T03:25:05;22.00;99.90
20654;DHT22;21083;50.898;4.902;2023-06-22T03:27:36;22.00;99.90
20654;DHT22;21083;50.898;4.902;2023-06-22T03:30:04;22.00;99.90
20654;DHT22;21083;50.898;4.902;2023-06-22T03:32:31;22.00;99.90
20654;DHT22;21083;50.898;4.902;2023-06-22T03:34:58;22.00;99.90
20654;DHT22;21083;50.898;4.902;2023-06-22T03:37:25;22.00;99.90
20654;DHT22;21083;50.898;4.902;2023-06-22T03:39:52;22.00;99.90
20654;DHT22;21083;50.898;4.902;2023-06-22T03:42:19;22.00;99.90
20654;DHT22;21083;50.898;4.902;2023-06-22T03:44:48;22.00;99.90
20654;DHT22;21083;50.898;4.902;2023-06-22T03:47:14;22.00;99.90
20654;DHT22;21083;50.898;4.902;2023-06-22T03:49:41;21.90;99.90
20654;DHT22;21083;50.898;4.902;2023-06-22T03:52:08;21.90;99.90
20654;DHT22;21083;50.898;4.902;2023-06-22T03:54:36;21.90;99.90
20654;DHT22;21083;50.898;4.902;2023-06-22T03:57:04;21.90;99.90
20654;DHT22;21083;50.898;4.902;2023-06-22T03:59:30;21.90;99.90
20654;DHT22;21083;50.898;4.902;2023-06-22T04:01:59;21.90;99.90
20654;DHT22;21083;50.898;4.902;2023-06-22T04:04:26;22.00;99.90
20654;DHT22;21083;50.898;4.902;2023-06-22T04:06:53;21.90;99.90
20654;DHT22;21083;50.898;4.902;2023-06-22T04:09:20;21.90;99.90
20654;DHT22;21083;50.898;4.902;2023-06-22T04:11:48;21.80;99.90
20654;DHT22;21083;50.898;4.902;2023-06-22T04:14:14;21.90;99.90
20654;DHT22;21083;50.898;4.902;2023-06-22T04:16:41;21.80;99.90
20654;DHT22;21083;50.898;4.902;2023-06-22T04:19:10;21.80;99.90
20654;DHT22;21083;50.898;4.902;2023-06-22T04:21:42;21.90;99.90
20654;DHT22;21083;50.898;4.902;2023-06-22T04:24:09;21.90;99.90
20654;DHT22;21083;50.898;4.902;2023-06-22T04:26:36;21.80;99.90
20654;DHT22;21083;50.898;4.902;2023-06-22T04:29:03;21.70;99.90
20654;DHT22;21083;50.898;4.902;2023-06-22T04:31:31;21.80;99.90
20654;DHT22;21083;50.898;4.902;2023-06-22T04:34:03;21.90;99.90
20654;DHT22;21083;50.898;4.902;2023-06-22T04:36:34;21.90;99.90
20654;DHT22;21083;50.898;4.902;2023-06-22T04:39:04;21.90;99.90
20654;DHT22;21083;50.898;4.902;2023-06-22T04:41:32;22.00;99.90
20654;DHT22;21083;50.898;4.902;2023-06-22T04:44:08;22.00;99.90
20654;DHT22;21083;50.898;4.902;2023-06-22T04:46:36;22.00;99.90
20654;DHT22;21083;50.898;4.902;2023-06-22T04:49:05;22.00;99.90
20654;DHT22;21083;50.898;4.902;2023-06-22T04:51:37;22.00;99.90
20654;DHT22;21083;50.898;4.902;2023-06-22T04:54:04;22.00;99.90
20654;DHT22;21083;50.898;4.902;2023-06-22T04:56:31;22.00;99.90
20654;DHT22;21083;50.898;4.902;2023-06-22T04:58:58;22.00;99.90
20654;DHT22;21083;50.898;4.902;2023-06-22T05:01:25;22.00;99.90
20654;DHT22;21083;50.898;4.902;2023-06-22T05:03:52;22.00;99.90
20654;DHT22;21083;50.898;4.902;2023-06-22T05:06:21;22.00;99.90
20654;DHT22;21083;50.898;4.902;2023-06-22T05:08:52;22.00;99.90
20654;DHT22;21083;50.898;4.902;2023-06-22T05:11:23;22.00;99.90
20654;DHT22;21083;50.898;4.902;2023-06-22T05:13:50;22.00;99.90
20654;DHT22;21083;50.898;4.902;2023-06-22T05:16:17;22.00;99.90
20654;DHT22;21083;50.898;4.902;2023-06-22T05:18:53;22.10;99.90
20654;DHT22;21083;50.898;4.902;2023-06-22T05:21:24;22.10;99.90
20654;DHT22;21083;50.898;4.902;2023-06-22T05:23:52;22.10;99.90
20654;DHT22;21083;50.898;4.902;2023-06-22T05:26:20;22.00;99.90
20654;DHT22;21083;50.898;4.902;2023-06-22T05:28:47;22.00;99.90
20654;DHT22;21083;50.898;4.902;2023-06-22T05:31:15;22.10;99.90
20654;DHT22;21083;50.898;4.902;2023-06-22T05:33:43;22.10;99.90
20654;DHT22;21083;50.898;4.902;2023-06-22T05:36:10;22.20;99.90
20654;DHT22;21083;50.898;4.902;2023-06-22T05:38:38;22.20;99.90
20654;DHT22;21083;50.898;4.902;2023-06-22T05:41:07;22.20;99.90
20654;DHT22;21083;50.898;4.902;2023-06-22T05:43:34;22.20;99.90
20654;DHT22;21083;50.898;4.902;2023-06-22T05:46:02;22.20;99.90
20654;DHT22;21083;50.898;4.902;2023-06-22T05:48:29;22.20;99.90
20654;DHT22;21083;50.898;4.902;2023-06-22T05:50:56;22.20;99.90
20654;DHT22;21083;50.898;4.902;2023-06-22T05:53:23;22.30;99.90
20654;DHT22;21083;50.898;4.902;2023-06-22T05:55:49;22.30;99.90
20654;DHT22;21083;50.898;4.902;2023-06-22T05:58:18;22.30;99.90
20654;DHT22;21083;50.898;4.902;2023-06-22T06:00:45;22.30;99.90
20654;DHT22;21083;50.898;4.902;2023-06-22T06:03:12;22.30;99.90
20654;DHT22;21083;50.898;4.902;2023-06-22T06:05:43;22.30;99.90
20654;DHT22;21083;50.898;4.902;2023-06-22T06:08:10;22.30;99.90
20654;DHT22;21083;50.898;4.902;2023-06-22T06:10:37;22.20;99.90
20654;DHT22;21083;50.898;4.902;2023-06-22T06:13:04;22.20;99.90
20654;DHT22;21083;50.898;4.902;2023-06-22T06:15:33;22.30;99.90
20654;DHT22;21083;50.898;4.902;2023-06-22T06:18:01;22.30;99.90
20654;DHT22;21083;50.898;4.902;2023-06-22T06:20:31;22.30;99.90
20654;DHT22;21083;50.898;4.902;2023-06-22T06:22:58;22.30;99.90
20654;DHT22;21083;50.898;4.902;2023-06-22T06:25:25;22.30;99.90
20654;DHT22;21083;50.898;4.902;2023-06-22T06:27:52;22.30;99.90
20654;DHT22;21083;50.898;4.902;2023-06-22T06:30:20;22.30;99.90
20654;DHT22;21083;50.898;4.902;2023-06-22T06:32:49;22.40;99.90
20654;DHT22;21083;50.898;4.902;2023-06-22T06:35:17;22.40;99.90
20654;DHT22;21083;50.898;4.902;2023-06-22T06:37:45;22.50;99.90
20654;DHT22;21083;50.898;4.902;2023-06-22T06:40:13;22.50;99.90
20654;DHT22;21083;50.898;4.902;2023-06-22T06:42:42;22.50;99.90
20654;DHT22;21083;50.898;4.902;2023-06-22T06:45:11;22.60;99.90
20654;DHT22;21083;50.898;4.902;2023-06-22T06:47:38;22.70;99.90
20654;DHT22;21083;50.898;4.902;2023-06-22T06:50:08;22.60;99.90
20654;DHT22;21083;50.898;4.902;2023-06-22T06:52:35;22.60;99.90
20654;DHT22;21083;50.898;4.902;2023-06-22T06:55:03;22.70;99.90
20654;DHT22;21083;50.898;4.902;2023-06-22T06:57:34;22.70;99.90
20654;DHT22;21083;50.898;4.902;2023-06-22T07:00:03;22.80;99.90
20654;DHT22;21083;50.898;4.902;2023-06-22T07:02:41;22.80;99.90
20654;DHT22;21083;50.898;4.902;2023-06-22T07:05:10;22.90;99.90
20654;DHT22;21083;50.898;4.902;2023-06-22T07:07:37;23.00;99.90
20654;DHT22;21083;50.898;4.902;2023-06-22T07:10:05;23.00;99.90
20654;DHT22;21083;50.898;4.902;2023-06-22T07:12:34;23.00;99.90
20654;DHT22;21083;50.898;4.902;2023-06-22T07:15:02;23.00;99.90
20654;DHT22;21083;50.898;4.902;2023-06-22T07:17:29;23.00;99.90
20654;DHT22;21083;50.898;4.902;2023-06-22T07:19:56;23.00;99.90
20654;DHT22;21083;50.898;4.902;2023-06-22T07:22:24;23.00;99.90
20654;DHT22;21083;50.898;4.902;2023-06-22T07:24:52;23.10;99.90
20654;DHT22;21083;50.898;4.902;2023-06-22T07:27:19;23.00;99.90
20654;DHT22;21083;50.898;4.902;2023-06-22T07:29:47;23.00;99.90
20654;DHT22;21083;50.898;4.902;2023-06-22T07:32:14;22.90;99.90
20654;DHT22;21083;50.898;4.902;2023-06-22T07:34:40;22.90;99.90
20654;DHT22;21083;50.898;4.902;2023-06-22T07:37:08;23.00;99.90
20654;DHT22;21083;50.898;4.902;2023-06-22T07:39:36;23.00;99.90
20654;DHT22;21083;50.898;4.902;2023-06-22T07:42:05;22.90;99.90
20654;DHT22;21083;50.898;4.902;2023-06-22T07:44:31;22.90;99.90
20654;DHT22;21083;50.898;4.902;2023-06-22T07:46:58;22.90;99.90
20654;DHT22;21083;50.898;4.902;2023-06-22T07:49:25;23.00;99.90
20654;DHT22;21083;50.898;4.902;2023-06-22T07:51:52;22.90;99.90
20654;DHT22;21083;50.898;4.902;2023-06-22T07:54:19;22.90;99.90
20654;DHT22;21083;50.898;4.902;2023-06-22T07:56:47;22.90;99.90
20654;DHT22;21083;50.898;4.902;2023-06-22T07:59:14;22.80;99.90
20654;DHT22;21083;50.898;4.902;2023-06-22T08:01:41;22.80;99.90
20654;DHT22;21083;50.898;4.902;2023-06-22T08:04:09;22.70;99.90
20654;DHT22;21083;50.898;4.902;2023-06-22T08:06:36;22.70;99.90
20654;DHT22;21083;50.898;4.902;2023-06-22T08:09:02;22.70;99.90
20654;DHT22;21083;50.898;4.902;2023-06-22T08:11:29;22.70;99.90
20654;DHT22;21083;50.898;4.902;2023-06-22T08:13:58;22.70;99.90
20654;DHT22;21083;50.898;4.902;2023-06-22T08:16:25;22.70;99.90
20654;DHT22;21083;50.898;4.902;2023-06-22T08:18:52;22.60;99.90
20654;DHT22;21083;50.898;4.902;2023-06-22T08:21:19;22.60;99.90
20654;DHT22;21083;50.898;4.902;2023-06-22T08:23:45;22.60;99.90
20654;DHT22;21083;50.898;4.902;2023-06-22T08:26:12;22.60;99.90
20654;DHT22;21083;50.898;4.902;2023-06-22T08:28:39;22.70;99.90
20654;DHT22;21083;50.898;4.902;2023-06-22T08:31:07;22.80;99.90
20654;DHT22;21083;50.898;4.902;2023-06-22T08:33:39;22.70;99.90
20654;DHT22;21083;50.898;4.902;2023-06-22T08:36:06;22.90;99.90
20654;DHT22;21083;50.898;4.902;2023-06-22T08:38:33;22.90;99.90
20654;DHT22;21083;50.898;4.902;2023-06-22T08:41:00;22.90;99.90
20654;DHT22;21083;50.898;4.902;2023-06-22T08:43:28;22.80;99.90
20654;DHT22;21083;50.898;4.902;2023-06-22T08:46:02;22.90;99.90
20654;DHT22;21083;50.898;4.902;2023-06-22T08:48:33;22.90;99.90
20654;DHT22;21083;50.898;4.902;2023-06-22T08:51:01;22.90;99.90
20654;DHT22;21083;50.898;4.902;2023-06-22T08:53:29;22.90;99.90
20654;DHT22;21083;50.898;4.902;2023-06-22T08:55:55;23.00;99.90
20654;DHT22;21083;50.898;4.902;2023-06-22T08:58:25;23.00;99.90
20654;DHT22;21083;50.898;4.902;2023-06-22T09:00:52;23.00;99.90
20654;DHT22;21083;50.898;4.902;2023-06-22T09:03:24;23.00;99.90
20654;DHT22;21083;50.898;4.902;2023-06-22T09:05:53;23.00;99.90
20654;DHT22;21083;50.898;4.902;2023-06-22T09:08:20;23.00;99.90
20654;DHT22;21083;50.898;4.902;2023-06-22T09:10:47;23.00;99.90
20654;DHT22;21083;50.898;4.902;2023-06-22T09:13:16;23.00;99.90
20654;DHT22;21083;50.898;4.902;2023-06-22T09:15:45;23.10;99.90
20654;DHT22;21083;50.898;4.902;2023-06-22T09:18:16;23.00;99.90
20654;DHT22;21083;50.898;4.902;2023-06-22T09:20:44;22.90;99.90
20654;DHT22;21083;50.898;4.902;2023-06-22T09:23:13;23.00;99.90
20654;DHT22;21083;50.898;4.902;2023-06-22T09:25:40;23.00;99.90
20654;DHT22;21083;50.898;4.902;2023-06-22T09:28:07;23.00;99.90
20654;DHT22;21083;50.898;4.902;2023-06-22T09:30:34;23.00;99.90
20654;DHT22;21083;50.898;4.902;2023-06-22T09:33:15;22.90;99.90
20654;DHT22;21083;50.898;4.902;2023-06-22T09:35:45;22.90;99.90
20654;DHT22;21083;50.898;4.902;2023-06-22T09:38:17;22.90;99.90
20654;DHT22;21083;50.898;4.902;2023-06-22T09:40:46;22.90;99.90
20654;DHT22;21083;50.898;4.902;2023-06-22T09:43:18;22.80;99.90
20654;DHT22;21083;50.898;4.902;2023-06-22T09:45:45;22.70;99.90
20654;DHT22;21083;50.898;4.902;2023-06-22T09:48:12;22.70;99.90
20654;DHT22;21083;50.898;4.902;2023-06-22T09:50:39;22.60;99.90
20654;DHT22;21083;50.898;4.902;2023-06-22T09:53:06;22.40;99.90
20654;DHT22;21083;50.898;4.902;2023-06-22T09:55:38;22.30;99.90
20654;DHT22;21083;50.898;4.902;2023-06-22T09:58:08;22.30;99.90
20654;DHT22;21083;50.898;4.902;2023-06-22T10:00:41;22.10;99.90
20654;DHT22;21083;50.898;4.902;2023-06-22T10:03:08;22.00;99.90
20654;DHT22;21083;50.898;4.902;2023-06-22T10:05:35;22.10;99.90
20654;DHT22;21083;50.898;4.902;2023-06-22T10:08:02;22.10;99.90
20654;DHT22;21083;50.898;4.902;2023-06-22T10:10:28;22.10;99.90
20654;DHT22;21083;50.898;4.902;2023-06-22T10:13:02;22.10;99.90
20654;DHT22;21083;50.898;4.902;2023-06-22T10:15:29;22.10;99.90
20654;DHT22;21083;50.898;4.902;2023-06-22T10:17:56;22.10;99.90
20654;DHT22;21083;50.898;4.902;2023-06-22T10:20:23;22.10;99.90
20654;DHT22;21083;50.898;4.902;2023-06-22T10:22:51;22.10;99.90
20654;DHT22;21083;50.898;4.902;2023-06-22T10:25:18;22.10;99.90
20654;DHT22;21083;50.898;4.902;2023-06-22T10:27:45;22.10;99.90
20654;DHT22;21083;50.898;4.902;2023-06-22T10:30:14;22.20;99.90
20654;DHT22;21083;50.898;4.902;2023-06-22T10:32:42;22.10;99.90
20654;DHT22;21083;50.898;4.902;2023-06-22T10:35:10;22.10;99.90
20654;DHT22;21083;50.898;4.902;2023-06-22T10:37:39;21.90;99.90
20654;DHT22;21083;50.898;4.902;2023-06-22T10:40:09;22.00;99.90
20654;DHT22;21083;50.898;4.902;2023-06-22T10:42:37;22.00;99.90
20654;DHT22;21083;50.898;4.902;2023-06-22T10:45:05;22.00;99.90
20654;DHT22;21083;50.898;4.902;2023-06-22T10:47:33;22.00;99.90
20654;DHT22;21083;50.898;4.902;2023-06-22T10:50:01;21.90;99.90
20654;DHT22;21083;50.898;4.902;2023-06-22T10:52:28;22.00;99.90
20654;DHT22;21083;50.898;4.902;2023-06-22T10:54:55;22.00;99.90
20654;DHT22;21083;50.898;4.902;2023-06-22T10:57:22;22.00;99.90
20654;DHT22;21083;50.898;4.902;2023-06-22T10:59:49;22.00;99.90
20654;DHT22;21083;50.898;4.902;2023-06-22T11:02:16;22.00;99.90
20654;DHT22;21083;50.898;4.902;2023-06-22T11:04:44;22.10;99.90
20654;DHT22;21083;50.898;4.902;2023-06-22T11:07:13;22.20;99.90
20654;DHT22;21083;50.898;4.902;2023-06-22T11:09:43;22.10;99.90
20654;DHT22;21083;50.898;4.902;2023-06-22T11:12:09;22.10;99.90
20654;DHT22;21083;50.898;4.902;2023-06-22T11:14:36;22.00;99.90
20654;DHT22;21083;50.898;4.902;2023-06-22T11:17:04;22.00;99.90
20654;DHT22;21083;50.898;4.902;2023-06-22T11:19:31;22.00;99.90
20654;DHT22;21083;50.898;4.902;2023-06-22T11:21:59;22.00;99.90
20654;DHT22;21083;50.898;4.902;2023-06-22T11:24:30;22.00;99.90
20654;DHT22;21083;50.898;4.902;2023-06-22T11:26:57;22.00;99.90
20654;DHT22;21083;50.898;4.902;2023-06-22T11:29:24;22.00;99.90
20654;DHT22;21083;50.898;4.902;2023-06-22T11:31:51;21.90;99.90
20654;DHT22;21083;50.898;4.902;2023-06-22T11:34:18;22.00;99.90
20654;DHT22;21083;50.898;4.902;2023-06-22T11:36:45;22.00;99.90
20654;DHT22;21083;50.898;4.902;2023-06-22T11:39:14;22.00;99.90
20654;DHT22;21083;50.898;4.902;2023-06-22T11:41:41;22.00;99.90
20654;DHT22;21083;50.898;4.902;2023-06-22T11:44:08;22.00;99.90
20654;DHT22;21083;50.898;4.902;2023-06-22T11:46:35;22.00;99.90
20654;DHT22;21083;50.898;4.902;2023-06-22T11:49:03;22.00;99.90
20654;DHT22;21083;50.898;4.902;2023-06-22T11:51:30;22.00;99.90
20654;DHT22;21083;50.898;4.902;2023-06-22T11:53:57;22.00;99.90
20654;DHT22;21083;50.898;4.902;2023-06-22T11:56:25;22.10;99.90
20654;DHT22;21083;50.898;4.902;2023-06-22T11:58:53;22.00;99.90
20654;DHT22;21083;50.898;4.902;2023-06-22T12:01:20;21.90;99.90
20654;DHT22;21083;50.898;4.902;2023-06-22T12:03:47;21.70;99.90
20654;DHT22;21083;50.898;4.902;2023-06-22T12:06:14;21.60;99.90
20654;DHT22;21083;50.898;4.902;2023-06-22T12:08:41;21.60;99.90
20654;DHT22;21083;50.898;4.902;2023-06-22T12:11:08;21.60;99.90
20654;DHT22;21083;50.898;4.902;2023-06-22T12:13:36;21.60;99.90
20654;DHT22;21083;50.898;4.902;2023-06-22T12:16:04;21.60;99.90
20654;DHT22;21083;50.898;4.902;2023-06-22T12:18:32;21.60;99.90
20654;DHT22;21083;50.898;4.902;2023-06-22T12:20:59;21.60;99.90
20654;DHT22;21083;50.898;4.902;2023-06-22T12:23:26;21.60;99.90
20654;DHT22;21083;50.898;4.902;2023-06-22T12:25:53;21.60;99.90
20654;DHT22;21083;50.898;4.902;2023-06-22T12:28:20;21.50;99.90
20654;DHT22;21083;50.898;4.902;2023-06-22T12:30:50;21.40;99.90
20654;DHT22;21083;50.898;4.902;2023-06-22T12:33:17;21.40;99.90
20654;DHT22;21083;50.898;4.902;2023-06-22T12:35:45;21.40;99.90
20654;DHT22;21083;50.898;4.902;2023-06-22T12:38:14;21.40;99.90
20654;DHT22;21083;50.898;4.902;2023-06-22T12:40:41;21.40;99.90
20654;DHT22;21083;50.898;4.902;2023-06-22T12:43:08;21.30;99.90
20654;DHT22;21083;50.898;4.902;2023-06-22T12:45:35;21.20;99.90
20654;DHT22;21083;50.898;4.902;2023-06-22T12:48:04;21.20;99.90
20654;DHT22;21083;50.898;4.902;2023-06-22T12:50:31;21.20;99.90
20654;DHT22;21083;50.898;4.902;2023-06-22T12:52:58;21.20;99.90
20654;DHT22;21083;50.898;4.902;2023-06-22T12:55:25;21.20;99.90
20654;DHT22;21083;50.898;4.902;2023-06-22T12:57:52;21.30;99.90
20654;DHT22;21083;50.898;4.902;2023-06-22T13:00:19;21.20;99.90
20654;DHT22;21083;50.898;4.902;2023-06-22T13:02:46;21.30;99.90
20654;DHT22;21083;50.898;4.902;2023-06-22T13:05:15;21.30;99.90
20654;DHT22;21083;50.898;4.902;2023-06-22T13:07:41;21.30;99.90
20654;DHT22;21083;50.898;4.902;2023-06-22T13:10:09;21.40;99.90
20654;DHT22;21083;50.898;4.902;2023-06-22T13:12:36;21.50;99.90
20654;DHT22;21083;50.898;4.902;2023-06-22T13:15:03;21.40;99.90
20654;DHT22;21083;50.898;4.902;2023-06-22T13:17:30;21.30;99.90
20654;DHT22;21083;50.898;4.902;2023-06-22T13:19:57;21.40;99.90
20654;DHT22;21083;50.898;4.902;2023-06-22T13:22:31;21.40;99.90
20654;DHT22;21083;50.898;4.902;2023-06-22T13:25:00;21.40;99.90
20654;DHT22;21083;50.898;4.902;2023-06-22T13:27:27;21.40;99.90
20654;DHT22;21083;50.898;4.902;2023-06-22T13:29:54;21.30;99.90
20654;DHT22;21083;50.898;4.902;2023-06-22T13:32:21;21.30;99.90
20654;DHT22;21083;50.898;4.902;2023-06-22T13:34:48;21.30;99.90
20654;DHT22;21083;50.898;4.902;2023-06-22T13:37:15;21.30;99.90
20654;DHT22;21083;50.898;4.902;2023-06-22T13:39:43;21.20;99.90
20654;DHT22;21083;50.898;4.902;2023-06-22T13:42:10;21.20;99.90
20654;DHT22;21083;50.898;4.902;2023-06-22T13:44:37;21.20;99.90
20654;DHT22;21083;50.898;4.902;2023-06-22T13:47:05;21.20;99.90
20654;DHT22;21083;50.898;4.902;2023-06-22T13:49:32;21.30;99.90
20654;DHT22;21083;50.898;4.902;2023-06-22T13:51:59;21.30;99.90
20654;DHT22;21083;50.898;4.902;2023-06-22T13:54:26;21.40;99.90
20654;DHT22;21083;50.898;4.902;2023-06-22T13:56:55;21.40;99.90
20654;DHT22;21083;50.898;4.902;2023-06-22T13:59:22;21.50;99.90
20654;DHT22;21083;50.898;4.902;2023-06-22T14:01:49;21.60;99.90
20654;DHT22;21083;50.898;4.902;2023-06-22T14:04:16;21.60;99.90
20654;DHT22;21083;50.898;4.902;2023-06-22T14:06:42;21.70;99.90
20654;DHT22;21083;50.898;4.902;2023-06-22T14:09:09;21.80;99.90
20654;DHT22;21083;50.898;4.902;2023-06-22T14:11:36;21.90;99.90
20654;DHT22;21083;50.898;4.902;2023-06-22T14:14:04;21.90;99.90
20654;DHT22;21083;50.898;4.902;2023-06-22T14:16:31;21.90;99.90
20654;DHT22;21083;50.898;4.902;2023-06-22T14:18:58;21.70;99.90
20654;DHT22;21083;50.898;4.902;2023-06-22T14:21:26;21.70;99.90
20654;DHT22;21083;50.898;4.902;2023-06-22T14:23:53;21.60;99.90
20654;DHT22;21083;50.898;4.902;2023-06-22T14:26:20;21.60;99.90
20654;DHT22;21083;50.898;4.902;2023-06-22T14:28:48;21.60;99.90
20654;DHT22;21083;50.898;4.902;2023-06-22T14:31:18;21.50;99.90
20654;DHT22;21083;50.898;4.902;2023-06-22T14:33:46;21.60;99.90
20654;DHT22;21083;50.898;4.902;2023-06-22T14:36:14;21.50;99.90
20654;DHT22;21083;50.898;4.902;2023-06-22T14:38:41;21.40;99.90
20654;DHT22;21083;50.898;4.902;2023-06-22T14:41:08;21.30;99.90
20654;DHT22;21083;50.898;4.902;2023-06-22T14:43:35;21.40;99.90
20654;DHT22;21083;50.898;4.902;2023-06-22T14:46:01;21.40;99.90
20654;DHT22;21083;50.898;4.902;2023-06-22T14:48:30;21.40;99.90
20654;DHT22;21083;50.898;4.902;2023-06-22T14:50:57;21.30;99.90
20654;DHT22;21083;50.898;4.902;2023-06-22T14:53:25;21.30;99.90
20654;DHT22;21083;50.898;4.902;2023-06-22T14:55:52;21.40;99.90
20654;DHT22;21083;50.898;4.902;2023-06-22T14:58:20;21.30;99.90
20654;DHT22;21083;50.898;4.902;2023-06-22T15:00:47;21.30;99.90
20654;DHT22;21083;50.898;4.902;2023-06-22T15:03:14;21.20;99.90
20654;DHT22;21083;50.898;4.902;2023-06-22T15:05:48;21.20;99.90
20654;DHT22;21083;50.898;4.902;2023-06-22T15:08:15;21.20;99.90
20654;DHT22;21083;50.898;4.902;2023-06-22T15:10:42;21.00;99.90
20654;DHT22;21083;50.898;4.902;2023-06-22T15:13:08;21.00;99.90
20654;DHT22;21083;50.898;4.902;2023-06-22T15:15:35;21.00;99.90
20654;DHT22;21083;50.898;4.902;2023-06-22T15:18:02;21.00;99.90
20654;DHT22;21083;50.898;4.902;2023-06-22T15:20:29;21.00;99.90
20654;DHT22;21083;50.898;4.902;2023-06-22T15:22:58;21.00;99.90
20654;DHT22;21083;50.898;4.902;2023-06-22T15:25:25;21.00;99.90
20654;DHT22;21083;50.898;4.902;2023-06-22T15:27:52;21.10;99.90
20654;DHT22;21083;50.898;4.902;2023-06-22T15:30:20;21.00;99.90
20654;DHT22;21083;50.898;4.902;2023-06-22T15:32:47;21.10;99.90
20654;DHT22;21083;50.898;4.902;2023-06-22T15:35:14;21.10;99.90